Time;durP1;ratioP1;P1;durP2;ratioP2;P2;SDS_P1;SDS_P2;PMS_P1;PMS_P2;Temp;Humidity;BMP_temperature;BMP_pressure;BME280_temperature;BME280_humidity;BME280_pressure;Samples;Min_cycle;Max_cycle;Signal;HPM_P1;HPM_P2
2022/08/15 00:00:59;;;;;;;1.50;1.40;;;29.80;63.30;;;;;;5142238;27;20530;-66
2022/08/15 00:03:34;;;;;;;1.50;1.40;;;29.80;62.80;;;;;;5143696;27;20872;-66
2022/08/15 00:06:28;;;;;;;1.50;1.37;;;29.70;64.90;;;;;;5128430;27;20437;-66
2022/08/15 00:09:12;;;;;;;1.60;1.50;;;29.80;62.80;;;;;;5126253;27;20450;-66
2022/08/15 00:11:47;;;;;;;1.30;1.23;;;29.80;61.90;;;;;;5122995;27;20442;-66
2022/08/15 00:14:26;;;;;;;1.67;1.57;;;29.70;61.20;;;;;;5129529;27;20473;-67
2022/08/15 00:17:02;;;;;;;1.40;1.30;;;29.70;62.60;;;;;;5128005;27;20496;-66
2022/08/15 00:19:41;;;;;;;1.37;1.27;;;29.70;62.80;;;;;;5136700;27;20776;-65
2022/08/15 00:22:15;;;;;;;1.80;1.67;;;29.50;62.80;;;;;;5124796;27;20493;-66
2022/08/15 00:24:49;;;;;;;2.20;1.40;;;29.40;64.00;;;;;;5143366;27;20458;-66
2022/08/15 00:27:24;;;;;;;1.17;1.17;;;29.40;64.30;;;;;;5143138;27;20482;-66
2022/08/15 00:29:57;;;;;;;1.60;1.50;;;29.30;64.10;;;;;;5134943;27;20451;-66
2022/08/15 00:32:28;;;;;;;1.50;1.37;;;29.20;63.80;;;;;;5137020;27;20460;-66
2022/08/15 00:35:37;;;;;;;1.43;1.27;;;29.10;62.90;;;;;;5143395;27;20455;-65
2022/08/15 00:38:09;;;;;;;1.00;1.00;;;29.10;63.70;;;;;;5139017;27;20442;-65
2022/08/15 00:43:53;;;;;;;1.43;1.33;;;29.00;64.00;;;;;;5128693;27;20452;-66
2022/08/15 00:46:27;;;;;;;1.60;1.50;;;29.10;63.90;;;;;;5142983;27;20445;-66
2022/08/15 00:48:58;;;;;;;1.47;1.37;;;29.10;64.10;;;;;;5143017;27;20479;-66
2022/08/15 00:51:44;;;;;;;1.70;1.37;;;29.10;65.10;;;;;;5139378;28;20444;-65
2022/08/15 00:54:27;;;;;;;1.70;1.60;;;29.00;64.60;;;;;;5132067;28;20519;-66
2022/08/15 00:57:21;;;;;;;1.60;1.50;;;28.90;63.60;;;;;;5141975;27;20453;-67
2022/08/15 01:00:15;;;;;;;1.27;1.17;;;28.90;63.20;;;;;;5141332;28;20512;-67
2022/08/15 01:03:09;;;;;;;1.27;1.17;;;28.90;64.30;;;;;;5126554;28;20460;-66
2022/08/15 01:05:49;;;;;;;1.07;1.07;;;28.90;62.30;;;;;;5112407;27;20444;-68
2022/08/15 01:08:22;;;;;;;1.33;1.23;;;28.80;62.90;;;;;;5134885;27;20463;-67
2022/08/15 01:11:10;;;;;;;1.40;1.30;;;28.80;61.00;;;;;;5142000;27;20484;-66
2022/08/15 01:13:43;;;;;;;2.27;1.57;;;28.80;62.50;;;;;;5139733;27;20601;-67
2022/08/15 01:16:35;;;;;;;1.47;1.37;;;28.90;62.70;;;;;;5131761;28;20914;-67
2022/08/15 01:19:18;;;;;;;0.80;0.80;;;28.80;60.60;;;;;;5142868;27;20503;-68
2022/08/15 01:22:18;;;;;;;1.43;1.20;;;28.80;60.80;;;;;;5107832;28;20453;-68
2022/08/15 01:25:09;;;;;;;1.27;1.17;;;28.60;60.50;;;;;;5136403;27;20445;-68
2022/08/15 01:28:00;;;;;;;1.00;0.90;;;28.50;61.90;;;;;;5121994;28;20788;-68
2022/08/15 01:30:34;;;;;;;1.13;1.03;;;28.40;61.60;;;;;;5122395;28;20558;-68
2022/08/15 01:33:27;;;;;;;1.40;1.30;;;28.30;61.90;;;;;;5138433;28;20441;-67
2022/08/15 01:35:59;;;;;;;1.23;1.13;;;28.30;62.30;;;;;;5124745;28;20508;-67
2022/08/15 01:38:35;;;;;;;1.30;1.20;;;28.20;62.30;;;;;;5142558;27;20469;-66
2022/08/15 01:41:36;;;;;;;1.27;1.17;;;28.20;60.60;;;;;;5136562;28;20502;-67
2022/08/15 01:44:30;;;;;;;1.40;1.10;;;28.30;61.50;;;;;;5136363;27;20577;-67
2022/08/15 01:47:14;;;;;;;1.53;1.43;;;28.30;59.70;;;;;;5128498;27;20458;-67
2022/08/15 01:49:55;;;;;;;1.30;1.20;;;28.40;60.00;;;;;;5144764;27;20456;-68
2022/08/15 01:52:38;;;;;;;1.07;1.07;;;28.30;61.50;;;;;;5137311;27;20439;-68
2022/08/15 01:55:33;;;;;;;1.10;1.00;;;28.30;61.60;;;;;;5133213;27;20558;-68
2022/08/15 01:58:15;;;;;;;1.17;1.07;;;28.20;61.00;;;;;;5116393;27;20505;-68
2022/08/15 02:00:53;;;;;;;1.50;1.30;;;28.10;62.30;;;;;;5134331;27;20911;-67
2022/08/15 02:03:33;;;;;;;1.43;1.33;;;28.00;61.70;;;;;;5125780;27;20953;-67
2022/08/15 02:06:22;;;;;;;2.27;2.07;;;28.00;61.10;;;;;;5123452;28;20445;-67
2022/08/15 02:09:04;;;;;;;1.57;1.47;;;27.80;63.00;;;;;;5122535;28;20447;-67
2022/08/15 02:11:56;;;;;;;1.30;1.20;;;27.80;64.40;;;;;;5136137;27;20445;-67
2022/08/15 02:14:35;;;;;;;1.70;1.60;;;27.80;65.90;;;;;;5132440;27;20480;-67
2022/08/15 02:17:09;;;;;;;1.50;1.40;;;27.60;67.40;;;;;;5135920;27;20450;-66
2022/08/15 02:19:44;;;;;;;1.27;1.17;;;27.50;68.60;;;;;;5122993;27;20468;-67
2022/08/15 02:22:22;;;;;;;1.57;1.47;;;27.40;70.10;;;;;;5126445;27;21014;-68
2022/08/15 02:24:56;;;;;;;1.90;1.73;;;27.30;70.20;;;;;;5136152;27;20444;-67
2022/08/15 02:27:29;;;;;;;1.60;1.50;;;27.40;69.10;;;;;;5145505;27;20577;-67
2022/08/15 02:30:04;;;;;;;1.73;1.50;;;27.40;70.30;;;;;;5145479;27;20471;-68
2022/08/15 02:32:36;;;;;;;1.30;1.20;;;27.40;70.90;;;;;;5144907;27;20462;-67
2022/08/15 02:35:09;;;;;;;1.60;1.50;;;27.30;71.40;;;;;;5128257;27;20490;-67
2022/08/15 02:37:42;;;;;;;1.70;1.60;;;27.10;72.00;;;;;;5122796;28;20915;-67
2022/08/15 02:40:28;;;;;;;1.73;1.63;;;27.00;72.00;;;;;;5124015;27;20445;-68
2022/08/15 02:43:20;;;;;;;1.73;1.47;;;26.90;72.30;;;;;;5123927;27;20489;-66
2022/08/15 02:45:53;;;;;;;2.30;1.40;;;26.80;72.80;;;;;;5131531;27;20463;-66
2022/08/15 02:48:26;;;;;;;1.73;1.63;;;26.70;74.10;;;;;;5145155;27;20451;-66
2022/08/15 02:50:58;;;;;;;1.50;1.40;;;26.60;74.50;;;;;;5141437;27;20466;-66
2022/08/15 02:53:29;;;;;;;1.57;1.47;;;26.50;75.90;;;;;;5140063;27;20448;-66
2022/08/15 02:56:13;;;;;;;1.83;1.73;;;26.30;76.80;;;;;;5124478;27;20586;-66
2022/08/15 02:58:46;;;;;;;1.47;1.37;;;26.20;77.80;;;;;;5124774;27;20457;-66
2022/08/15 03:01:20;;;;;;;1.60;1.50;;;26.10;78.40;;;;;;5124078;28;20461;-66
2022/08/15 03:03:55;;;;;;;1.40;1.30;;;26.00;78.70;;;;;;5127662;27;20473;-66
2022/08/15 03:06:30;;;;;;;1.53;1.20;;;25.90;79.70;;;;;;5136228;27;20547;-66
2022/08/15 03:09:06;;;;;;;1.63;1.50;;;25.70;80.50;;;;;;5124284;27;20466;-66
2022/08/15 03:11:39;;;;;;;1.40;1.30;;;25.60;82.50;;;;;;5124033;28;20508;-66
2022/08/15 03:14:28;;;;;;;1.93;1.40;;;25.40;83.10;;;;;;5123494;28;20448;-66
2022/08/15 03:17:08;;;;;;;1.53;1.43;;;25.30;84.20;;;;;;5125757;27;20444;-66
2022/08/15 03:19:39;;;;;;;1.47;1.33;;;25.20;85.20;;;;;;5123143;27;20440;-66
2022/08/15 03:22:14;;;;;;;1.80;1.40;;;25.10;85.90;;;;;;5123034;27;20475;-66
2022/08/15 03:25:06;;;;;;;1.50;1.40;;;25.00;86.80;;;;;;5124433;28;20792;-66
2022/08/15 03:27:38;;;;;;;1.47;1.37;;;24.90;87.90;;;;;;5123760;27;20482;-66
2022/08/15 03:30:14;;;;;;;2.17;1.97;;;24.80;88.50;;;;;;5144399;27;20598;-66
2022/08/15 03:32:53;;;;;;;1.93;1.83;;;24.80;90.00;;;;;;5143635;27;20856;-66
2022/08/15 03:35:27;;;;;;;1.63;1.53;;;24.80;90.00;;;;;;5129033;27;20557;-67
2022/08/15 03:37:59;;;;;;;1.73;1.63;;;24.70;90.40;;;;;;5122075;28;20463;-65
2022/08/15 03:40:35;;;;;;;2.00;1.80;;;24.60;90.60;;;;;;5124125;27;20534;-65
2022/08/15 03:43:08;;;;;;;1.80;1.70;;;24.50;91.00;;;;;;5122389;27;20462;-66
2022/08/15 03:45:46;;;;;;;1.70;1.60;;;24.40;91.50;;;;;;5120262;28;20447;-65
2022/08/15 03:48:20;;;;;;;1.90;1.70;;;24.40;91.70;;;;;;5123449;27;20505;-65
2022/08/15 03:50:53;;;;;;;2.33;1.60;;;24.30;92.10;;;;;;5122607;27;20506;-66
2022/08/15 03:53:29;;;;;;;1.60;1.40;;;24.30;92.30;;;;;;5122761;27;20443;-67
2022/08/15 03:56:02;;;;;;;2.20;1.77;;;24.20;92.70;;;;;;5122339;28;20482;-66
2022/08/15 03:58:36;;;;;;;2.27;1.80;;;24.20;93.00;;;;;;5114532;27;20966;-66
2022/08/15 04:01:11;;;;;;;1.67;1.57;;;24.20;93.50;;;;;;5115411;27;20487;-65
2022/08/15 04:03:47;;;;;;;2.17;1.97;;;24.10;94.00;;;;;;5122992;27;20481;-66
2022/08/15 04:06:22;;;;;;;2.20;1.97;;;24.00;94.30;;;;;;5126357;27;20841;-65
2022/08/15 04:08:58;;;;;;;2.00;1.80;;;24.00;96.40;;;;;;5140024;27;20441;-66
2022/08/15 04:11:42;;;;;;;1.83;1.67;;;23.90;97.10;;;;;;5139501;27;20525;-65
2022/08/15 04:14:15;;;;;;;2.03;1.90;;;23.80;97.80;;;;;;5140746;27;20539;-66
2022/08/15 04:17:05;;;;;;;2.10;1.90;;;23.70;97.80;;;;;;5133533;27;20766;-65
2022/08/15 04:19:47;;;;;;;2.03;1.83;;;23.70;98.30;;;;;;5122990;28;20450;-65
2022/08/15 04:22:34;;;;;;;2.03;1.87;;;23.60;98.90;;;;;;5121901;28;20494;-65
2022/08/15 04:25:27;;;;;;;2.27;2.03;;;23.50;99.90;;;;;;5123896;27;20480;-65
2022/08/15 04:28:11;;;;;;;1.93;1.73;;;23.40;99.90;;;;;;5122813;28;20445;-64
2022/08/15 04:31:05;;;;;;;1.93;1.50;;;23.30;99.90;;;;;;5120733;28;20437;-65
2022/08/15 04:33:36;;;;;;;2.30;2.10;;;23.20;99.90;;;;;;5135417;27;20518;-65
2022/08/15 04:36:29;;;;;;;2.60;2.03;;;23.20;99.90;;;;;;5121363;27;20836;-65
2022/08/15 04:39:03;;;;;;;1.90;1.67;;;23.20;99.90;;;;;;5121726;28;20540;-65
2022/08/15 04:41:35;;;;;;;2.07;1.97;;;23.10;99.90;;;;;;5122234;28;20540;-65
2022/08/15 04:44:07;;;;;;;2.20;1.57;;;23.00;99.90;;;;;;5123305;28;20449;-66
2022/08/15 04:46:47;;;;;;;2.13;1.83;;;22.90;99.90;;;;;;5142518;27;20441;-65
2022/08/15 04:49:17;;;;;;;2.23;2.03;;;22.80;99.90;;;;;;5143152;27;20532;-66
2022/08/15 04:51:53;;;;;;;2.57;1.83;;;22.80;99.90;;;;;;5141732;27;20449;-66
2022/08/15 04:54:25;;;;;;;1.47;1.30;;;22.70;99.90;;;;;;5106620;28;20449;-66
2022/08/15 04:56:56;;;;;;;2.20;1.70;;;22.60;99.90;;;;;;5123038;28;20477;-66
2022/08/15 04:59:28;;;;;;;3.30;1.90;;;22.60;99.90;;;;;;5134881;28;20449;-66
2022/08/15 05:02:09;;;;;;;2.80;1.93;;;22.50;99.90;;;;;;5124505;27;20521;-66
2022/08/15 05:05:01;;;;;;;3.33;1.90;;;22.50;99.90;;;;;;5130338;28;20548;-66
2022/08/15 05:07:36;;;;;;;2.07;1.90;;;22.40;99.90;;;;;;5142304;27;20451;-65
2022/08/15 05:10:27;;;;;;;1.73;1.63;;;22.30;99.90;;;;;;5137935;27;20445;-66
2022/08/15 05:13:13;;;;;;;2.80;1.80;;;22.20;99.90;;;;;;5121230;28;20491;-66
2022/08/15 05:15:46;;;;;;;2.00;1.90;;;22.10;99.90;;;;;;5143382;27;20484;-66
2022/08/15 05:18:24;;;;;;;1.97;1.87;;;22.10;99.90;;;;;;5123491;27;20437;-65
2022/08/15 05:20:56;;;;;;;2.07;1.97;;;22.00;99.90;;;;;;5121973;28;20528;-65
2022/08/15 05:23:30;;;;;;;2.00;1.80;;;22.00;99.90;;;;;;5124464;28;20461;-66
2022/08/15 05:26:12;;;;;;;1.60;1.50;;;21.90;99.90;;;;;;5127387;27;20464;-66
2022/08/15 05:29:03;;;;;;;2.00;1.73;;;21.90;99.90;;;;;;5147087;27;20485;-66
2022/08/15 05:31:35;;;;;;;1.37;1.27;;;21.80;99.90;;;;;;5127518;27;20449;-66
2022/08/15 05:34:05;;;;;;;2.23;2.03;;;21.80;99.90;;;;;;5128349;27;20605;-66
2022/08/15 05:36:39;;;;;;;1.70;1.57;;;21.70;99.90;;;;;;5145677;27;20486;-65
2022/08/15 05:39:21;;;;;;;1.70;1.60;;;21.70;99.90;;;;;;5146722;27;20455;-65
2022/08/15 05:42:06;;;;;;;1.90;1.80;;;21.60;99.90;;;;;;5122273;27;20561;-66
2022/08/15 05:44:49;;;;;;;2.60;1.87;;;21.50;99.90;;;;;;5126645;27;20470;-65
2022/08/15 05:47:33;;;;;;;1.60;1.50;;;21.50;99.90;;;;;;5133818;27;20479;-66
2022/08/15 05:50:13;;;;;;;1.60;1.50;;;21.50;99.90;;;;;;5126201;27;20449;-65
2022/08/15 05:52:50;;;;;;;2.30;2.03;;;21.50;99.90;;;;;;5131981;27;20444;-66
2022/08/15 05:55:37;;;;;;;2.13;1.90;;;21.40;99.90;;;;;;5146329;27;20468;-66
2022/08/15 05:58:26;;;;;;;1.60;1.50;;;21.40;99.90;;;;;;5141945;27;20459;-67
2022/08/15 06:01:18;;;;;;;2.30;1.40;;;21.40;99.90;;;;;;5126319;27;20460;-66
2022/08/15 06:03:55;;;;;;;2.20;1.70;;;21.30;99.90;;;;;;5125845;28;20476;-65
2022/08/15 06:06:30;;;;;;;2.30;2.10;;;21.30;99.90;;;;;;5109189;27;20445;-66
2022/08/15 06:09:33;;;;;;;3.07;1.60;;;21.20;99.90;;;;;;5125237;28;20476;-65
2022/08/15 06:12:18;;;;;;;1.70;1.60;;;21.00;99.90;;;;;;5113394;27;20445;-65
2022/08/15 06:14:57;;;;;;;2.20;1.77;;;20.90;99.90;;;;;;5125246;27;20890;-65
2022/08/15 06:17:40;;;;;;;1.83;1.70;;;20.90;99.90;;;;;;5125252;27;20553;-66
2022/08/15 06:20:18;;;;;;;1.60;1.50;;;20.90;99.90;;;;;;5143438;27;20459;-66
2022/08/15 06:23:14;;;;;;;1.87;1.70;;;20.80;99.90;;;;;;5137795;27;20791;-66
2022/08/15 06:26:17;;;;;;;2.20;1.90;;;20.80;99.90;;;;;;5123165;27;20448;-66
2022/08/15 06:29:09;;;;;;;2.03;1.80;;;20.70;99.90;;;;;;5125426;27;20430;-66
2022/08/15 06:31:42;;;;;;;3.10;2.20;;;20.70;99.90;;;;;;5125545;28;20813;-66
2022/08/15 06:34:27;;;;;;;2.30;2.10;;;20.70;99.90;;;;;;5128072;27;20444;-66
2022/08/15 06:37:25;;;;;;;2.50;1.97;;;20.60;99.90;;;;;;5144019;27;20507;-65
2022/08/15 06:40:15;;;;;;;1.70;1.60;;;20.50;99.90;;;;;;5121932;27;20453;-65
2022/08/15 06:42:57;;;;;;;2.00;1.90;;;20.50;99.90;;;;;;5113611;27;20446;-65
2022/08/15 06:45:36;;;;;;;2.10;1.50;;;20.50;99.90;;;;;;5137903;27;20449;-65
2022/08/15 06:48:23;;;;;;;2.20;2.00;;;20.40;99.90;;;;;;5145454;27;20453;-66
2022/08/15 06:51:14;;;;;;;3.77;2.00;;;20.40;99.90;;;;;;5144415;27;20459;-65
2022/08/15 06:53:53;;;;;;;2.07;1.87;;;20.30;99.90;;;;;;5145261;27;20452;-66
2022/08/15 06:56:31;;;;;;;1.93;1.83;;;20.20;99.90;;;;;;5144491;27;21213;-66
2022/08/15 06:59:08;;;;;;;3.37;2.20;;;20.20;99.90;;;;;;5135135;27;20440;-66
2022/08/15 07:01:53;;;;;;;2.63;2.13;;;20.20;99.90;;;;;;5139414;27;20431;-65
2022/08/15 07:04:54;;;;;;;1.90;1.70;;;20.10;99.90;;;;;;5120257;27;20440;-66
2022/08/15 07:07:41;;;;;;;2.13;1.63;;;20.10;99.90;;;;;;5135505;27;20617;-66
2022/08/15 07:10:20;;;;;;;1.57;1.47;;;20.00;99.90;;;;;;5144626;27;20472;-66
2022/08/15 07:13:02;;;;;;;2.50;1.97;;;19.90;99.90;;;;;;5137577;27;20510;-66
2022/08/15 07:15:42;;;;;;;2.20;2.00;;;19.80;99.90;;;;;;5141700;27;20455;-66
2022/08/15 07:18:22;;;;;;;2.03;1.73;;;19.70;99.90;;;;;;5124691;27;20552;-66
2022/08/15 07:21:05;;;;;;;1.93;1.80;;;19.70;99.90;;;;;;5122925;28;20549;-66
2022/08/15 07:24:01;;;;;;;2.60;2.03;;;19.60;99.90;;;;;;5124298;28;20431;-66
2022/08/15 07:26:56;;;;;;;4.17;2.13;;;19.60;99.90;;;;;;5123577;28;20922;-66
2022/08/15 07:29:32;;;;;;;3.53;1.67;;;19.60;99.90;;;;;;5133599;27;20442;-66
2022/08/15 07:32:14;;;;;;;2.40;1.60;;;19.50;99.90;;;;;;5125139;27;20456;-66
2022/08/15 07:35:07;;;;;;;2.97;2.00;;;19.40;99.90;;;;;;5144023;27;20480;-66
2022/08/15 07:37:41;;;;;;;1.60;1.50;;;19.40;99.90;;;;;;5107495;28;20597;-66
2022/08/15 07:40:22;;;;;;;2.60;1.77;;;19.30;99.90;;;;;;5123573;28;20550;-66
2022/08/15 07:43:01;;;;;;;2.87;2.00;;;19.30;99.90;;;;;;5123624;27;20499;-66
2022/08/15 07:45:37;;;;;;;1.97;1.77;;;19.30;99.90;;;;;;5107807;28;20420;-66
2022/08/15 07:48:23;;;;;;;2.27;1.67;;;19.30;99.90;;;;;;5123351;27;20951;-66
2022/08/15 07:51:09;;;;;;;2.37;2.17;;;19.30;99.90;;;;;;5123139;28;20438;-66
2022/08/15 07:53:53;;;;;;;2.13;1.63;;;19.20;99.90;;;;;;5124181;28;20474;-66
2022/08/15 07:56:26;;;;;;;2.27;1.60;;;19.10;99.90;;;;;;5133333;27;20591;-65
2022/08/15 07:59:22;;;;;;;2.57;2.13;;;19.00;99.90;;;;;;5142715;27;20802;-66
2022/08/15 08:02:02;;;;;;;2.87;2.47;;;19.10;99.90;;;;;;5129502;27;20513;-65
2022/08/15 08:04:53;;;;;;;2.23;2.03;;;19.00;99.90;;;;;;5128884;27;20531;-66
2022/08/15 08:07:37;;;;;;;1.80;1.50;;;19.00;99.90;;;;;;5121998;27;20517;-65
2022/08/15 08:10:19;;;;;;;2.10;1.90;;;18.90;99.90;;;;;;5123285;27;20470;-66
2022/08/15 08:13:11;;;;;;;2.60;1.80;;;18.90;99.90;;;;;;5128854;27;20457;-66
2022/08/15 08:15:55;;;;;;;2.17;1.80;;;18.80;99.90;;;;;;5108152;28;20448;-66
2022/08/15 08:18:49;;;;;;;2.40;2.00;;;18.80;99.90;;;;;;5122741;28;20535;-66
2022/08/15 08:21:25;;;;;;;1.70;1.47;;;18.70;99.90;;;;;;5123032;28;20901;-66
2022/08/15 08:24:04;;;;;;;2.17;1.83;;;18.60;99.90;;;;;;5143981;27;20448;-66
2022/08/15 08:26:47;;;;;;;2.87;1.97;;;18.60;99.90;;;;;;5132114;27;20502;-66
2022/08/15 08:29:29;;;;;;;2.50;2.00;;;18.60;99.90;;;;;;5124143;27;20428;-66
2022/08/15 08:32:18;;;;;;;2.07;1.80;;;18.60;99.90;;;;;;5136096;27;20441;-66
2022/08/15 08:35:14;;;;;;;2.17;1.97;;;18.60;99.90;;;;;;5123052;28;20450;-66
2022/08/15 08:37:53;;;;;;;1.93;1.83;;;18.50;99.90;;;;;;5121480;28;20493;-66
2022/08/15 08:43:40;;;;;;;2.00;1.77;;;18.40;99.90;;;;;;5139170;27;20434;-66
2022/08/15 08:46:25;;;;;;;3.93;1.80;;;18.40;99.90;;;;;;5122678;28;20456;-66
2022/08/15 08:49:11;;;;;;;3.40;1.80;;;18.30;99.90;;;;;;5136583;27;20473;-66
2022/08/15 08:51:53;;;;;;;4.00;2.87;;;18.30;99.90;;;;;;5138254;27;20405;-66
2022/08/15 08:54:31;;;;;;;2.97;2.07;;;18.20;99.90;;;;;;5123298;28;20419;-66
2022/08/15 08:57:26;;;;;;;1.70;1.60;;;18.20;99.90;;;;;;5122317;28;20464;-66
2022/08/15 09:00:02;;;;;;;2.90;1.90;;;18.10;99.90;;;;;;5133915;27;20483;-65
2022/08/15 09:02:38;;;;;;;1.90;1.43;;;18.10;99.90;;;;;;5146184;27;20509;-66
2022/08/15 09:05:29;;;;;;;2.57;1.93;;;18.10;99.90;;;;;;5128962;27;20477;-66
2022/08/15 09:08:18;;;;;;;2.60;2.33;;;18.10;99.90;;;;;;5126425;27;20452;-66
2022/08/15 09:11:03;;;;;;;2.33;2.10;;;18.10;99.90;;;;;;5126368;28;20510;-66
2022/08/15 09:13:40;;;;;;;1.70;1.60;;;18.00;99.90;;;;;;5146489;27;20445;-66
2022/08/15 09:16:18;;;;;;;2.70;2.33;;;18.10;99.90;;;;;;5130838;27;20449;-66
2022/08/15 09:19:00;;;;;;;3.50;2.20;;;18.10;99.90;;;;;;5140078;27;20591;-66
2022/08/15 09:21:30;;;;;;;2.50;1.83;;;18.00;99.90;;;;;;5143019;27;20524;-66
2022/08/15 09:24:07;;;;;;;1.90;1.47;;;18.00;99.90;;;;;;5126779;28;20451;-66
2022/08/15 09:27:05;;;;;;;1.60;1.50;;;17.90;99.90;;;;;;5126359;27;20461;-66
2022/08/15 09:29:42;;;;;;;2.97;2.07;;;17.90;99.90;;;;;;5126000;27;20464;-67
2022/08/15 09:32:47;;;;;;;2.10;1.90;;;17.80;99.90;;;;;;5135574;27;20487;-66
2022/08/15 09:35:34;;;;;;;2.27;1.90;;;17.80;99.90;;;;;;5146709;27;20453;-65
2022/08/15 09:38:36;;;;;;;3.50;2.90;;;17.70;99.90;;;;;;5110199;28;20485;-66
2022/08/15 09:41:25;;;;;;;2.80;2.20;;;17.70;99.90;;;;;;5126670;27;20435;-66
2022/08/15 09:44:19;;;;;;;3.10;2.23;;;17.60;99.90;;;;;;5126141;28;20500;-66
2022/08/15 09:47:27;;;;;;;2.23;2.03;;;17.60;99.90;;;;;;5118114;27;20430;-65
2022/08/15 09:50:41;;;;;;;2.30;2.00;;;17.60;99.90;;;;;;5125759;27;20429;-66
2022/08/15 09:53:26;;;;;;;2.10;1.73;;;17.50;99.90;;;;;;5144949;27;20472;-65
2022/08/15 09:56:21;;;;;;;3.43;2.60;;;17.50;99.90;;;;;;5145866;27;20419;-66
2022/08/15 09:59:08;;;;;;;2.30;2.10;;;17.40;99.90;;;;;;5145425;27;20463;-66
2022/08/15 10:01:53;;;;;;;2.60;1.90;;;17.40;99.90;;;;;;5138361;27;20448;-66
2022/08/15 10:04:42;;;;;;;3.50;2.43;;;17.40;99.90;;;;;;5126050;28;20518;-65
2022/08/15 10:07:45;;;;;;;2.40;2.20;;;17.40;99.90;;;;;;5124447;28;20443;-65
2022/08/15 10:10:21;;;;;;;4.47;2.10;;;17.40;99.90;;;;;;5124850;27;20445;-65
2022/08/15 10:13:26;;;;;;;2.50;2.30;;;17.30;99.90;;;;;;5132873;27;20516;-65
2022/08/15 10:15:59;;;;;;;3.20;2.33;;;17.10;99.90;;;;;;5133729;27;20539;-65
2022/08/15 10:19:04;;;;;;;3.30;2.03;;;17.00;99.90;;;;;;5145235;27;20567;-65
2022/08/15 10:21:39;;;;;;;3.03;2.13;;;17.00;99.90;;;;;;5139816;27;20454;-65
2022/08/15 10:24:28;;;;;;;2.87;2.00;;;17.00;99.90;;;;;;5125424;28;20454;-65
2022/08/15 10:27:17;;;;;;;2.80;2.43;;;17.00;99.90;;;;;;5137561;27;20925;-66
2022/08/15 10:29:50;;;;;;;2.83;2.07;;;17.00;99.90;;;;;;5110585;27;20464;-66
2022/08/15 10:32:40;;;;;;;2.60;2.13;;;16.90;99.90;;;;;;5141785;27;20469;-66
2022/08/15 10:35:39;;;;;;;2.00;1.80;;;16.90;99.90;;;;;;5142294;27;20425;-66
2022/08/15 10:38:13;;;;;;;2.00;1.77;;;16.90;99.90;;;;;;5126387;27;20496;-66
2022/08/15 10:41:14;;;;;;;2.60;2.07;;;16.80;99.90;;;;;;5125157;28;20502;-66
2022/08/15 10:44:02;;;;;;;2.67;2.40;;;16.80;99.90;;;;;;5125132;27;20431;-66
2022/08/15 10:47:02;;;;;;;2.03;1.83;;;16.70;99.90;;;;;;5126027;27;20892;-65
2022/08/15 10:49:40;;;;;;;2.60;1.70;;;16.60;99.90;;;;;;5107782;28;20457;-65
2022/08/15 10:52:29;;;;;;;2.13;1.90;;;16.60;99.90;;;;;;5123555;27;21039;-65
2022/08/15 10:55:25;;;;;;;2.90;2.60;;;16.60;99.90;;;;;;5124793;28;20463;-66
2022/08/15 10:58:20;;;;;;;1.90;1.60;;;16.70;99.90;;;;;;5113201;28;20479;-65
2022/08/15 11:01:06;;;;;;;2.77;2.30;;;16.60;99.90;;;;;;5124129;28;20480;-66
2022/08/15 11:03:46;;;;;;;3.27;2.23;;;16.70;99.90;;;;;;5111944;27;20528;-65
2022/08/15 11:06:42;;;;;;;2.27;1.80;;;16.60;99.90;;;;;;5131872;27;20425;-66
2022/08/15 11:09:18;;;;;;;2.20;2.00;;;16.60;99.90;;;;;;5124195;27;20481;-66
2022/08/15 11:11:55;;;;;;;2.83;2.43;;;16.60;99.90;;;;;;5124711;28;20439;-66
2022/08/15 11:14:33;;;;;;;2.80;2.00;;;16.50;99.90;;;;;;5124832;28;20523;-65
2022/08/15 11:17:07;;;;;;;3.00;2.23;;;16.50;99.90;;;;;;5140306;27;20444;-66
2022/08/15 11:19:44;;;;;;;2.60;1.93;;;16.50;99.90;;;;;;5107391;28;20829;-66
2022/08/15 11:22:38;;;;;;;3.13;2.33;;;16.50;99.90;;;;;;5123236;27;21041;-66
2022/08/15 11:25:19;;;;;;;3.17;2.50;;;16.40;99.90;;;;;;5124274;28;20449;-66
2022/08/15 11:28:04;;;;;;;2.67;2.43;;;16.40;99.90;;;;;;5108383;27;20453;-66
2022/08/15 11:31:03;;;;;;;3.10;2.03;;;16.40;99.90;;;;;;5136857;27;20444;-66
2022/08/15 11:33:41;;;;;;;2.97;2.60;;;16.30;99.90;;;;;;5144314;27;20415;-66
2022/08/15 11:36:20;;;;;;;2.67;2.00;;;16.40;99.90;;;;;;5135597;27;20420;-66
2022/08/15 11:38:55;;;;;;;2.73;2.17;;;16.40;99.90;;;;;;5124238;28;20618;-65
2022/08/15 11:41:49;;;;;;;2.57;2.30;;;16.30;99.90;;;;;;5143237;27;20437;-66
2022/08/15 11:44:33;;;;;;;2.40;2.10;;;16.30;99.90;;;;;;5144413;27;20441;-65
2022/08/15 11:47:05;;;;;;;4.87;2.57;;;16.30;99.90;;;;;;5128648;27;20420;-66
2022/08/15 11:49:43;;;;;;;3.50;2.40;;;16.20;99.90;;;;;;5123151;27;20449;-65
2022/08/15 11:52:14;;;;;;;2.67;2.30;;;16.20;99.90;;;;;;5122643;28;20424;-66
2022/08/15 11:55:13;;;;;;;2.90;2.00;;;16.20;99.90;;;;;;5123843;27;20496;-65
2022/08/15 11:57:56;;;;;;;2.00;1.57;;;16.20;99.90;;;;;;5107950;27;20416;-66
2022/08/15 12:00:31;;;;;;;3.63;2.33;;;16.20;99.90;;;;;;5123516;28;20540;-66
2022/08/15 12:03:19;;;;;;;2.30;1.90;;;16.10;99.90;;;;;;5123241;28;20496;-66
2022/08/15 12:06:27;;;;;;;2.70;2.20;;;16.00;99.90;;;;;;5129880;27;20487;-66
2022/08/15 12:09:21;;;;;;;2.20;1.73;;;16.00;99.90;;;;;;5143847;27;20449;-66
2022/08/15 12:12:25;;;;;;;2.70;2.20;;;15.90;99.90;;;;;;5134077;27;20546;-66
2022/08/15 12:15:09;;;;;;;2.17;1.80;;;15.90;99.90;;;;;;5130440;27;20428;-66
2022/08/15 12:18:13;;;;;;;2.27;2.07;;;15.80;99.90;;;;;;5123217;27;20541;-66
2022/08/15 12:21:11;;;;;;;2.20;2.03;;;15.80;99.90;;;;;;5121709;28;20573;-66
2022/08/15 12:23:51;;;;;;;3.00;2.00;;;15.80;99.90;;;;;;5139898;27;20928;-65
2022/08/15 12:26:27;;;;;;;4.87;2.67;;;15.80;99.90;;;;;;5133000;27;20789;-66
2022/08/15 12:29:18;;;;;;;2.10;1.80;;;15.80;99.90;;;;;;5123292;28;20462;-66
2022/08/15 12:31:53;;;;;;;2.40;2.00;;;15.70;99.90;;;;;;5139431;27;20452;-66
2022/08/15 12:34:28;;;;;;;3.10;2.67;;;15.70;99.90;;;;;;5107476;28;20429;-66
2022/08/15 12:37:08;;;;;;;2.00;1.80;;;15.70;99.90;;;;;;5136015;27;20552;-66
2022/08/15 12:39:41;;;;;;;4.33;2.30;;;15.70;99.90;;;;;;5143563;27;20517;-66
2022/08/15 12:42:15;;;;;;;2.80;2.60;;;15.70;99.90;;;;;;5123951;27;20428;-65
2022/08/15 12:45:11;;;;;;;3.30;2.33;;;15.70;99.90;;;;;;5132214;27;20437;-65
2022/08/15 12:47:43;;;;;;;2.93;2.20;;;15.60;99.90;;;;;;5143178;27;20437;-65
2022/08/15 12:50:36;;;;;;;2.60;2.40;;;15.50;99.90;;;;;;5120414;28;20471;-65
2022/08/15 12:53:08;;;;;;;1.97;1.70;;;15.40;99.90;;;;;;5143042;27;20774;-65
2022/08/15 12:55:40;;;;;;;2.27;2.10;;;15.50;99.90;;;;;;5143572;27;20436;-65
2022/08/15 12:58:12;;;;;;;2.67;2.30;;;15.50;99.90;;;;;;5143432;27;20415;-66
2022/08/15 13:00:48;;;;;;;5.00;2.53;;;15.50;99.90;;;;;;5136605;27;20467;-66
2022/08/15 13:03:33;;;;;;;3.63;2.30;;;15.50;99.90;;;;;;5115082;28;20484;-66
2022/08/15 13:06:38;;;;;;;3.13;2.43;;;15.50;99.90;;;;;;5138683;28;20448;-66
2022/08/15 13:09:28;;;;;;;2.37;2.17;;;15.40;99.90;;;;;;5122722;28;20416;-66
2022/08/15 13:12:01;;;;;;;2.83;1.80;;;15.40;99.90;;;;;;5138468;28;20832;-66
2022/08/15 13:14:47;;;;;;;1.83;1.73;;;15.30;99.90;;;;;;5108058;28;20450;-65
2022/08/15 13:17:18;;;;;;;3.20;2.27;;;15.30;99.90;;;;;;5122699;28;20454;-66
2022/08/15 13:25:47;;;;;;;3.53;2.90;;;15.20;99.90;;;;;;5143368;27;20563;-66
2022/08/15 13:28:25;;;;;;;2.50;2.27;;;15.20;99.90;;;;;;5143726;27;20508;-65
2022/08/15 13:31:04;;;;;;;2.20;2.00;;;15.20;99.90;;;;;;5131525;27;20441;-66
2022/08/15 13:33:37;;;;;;;3.03;2.50;;;15.20;99.90;;;;;;5138069;28;20430;-66
2022/08/15 13:36:16;;;;;;;3.30;2.43;;;15.30;99.90;;;;;;5142070;27;20449;-66
2022/08/15 13:39:03;;;;;;;3.60;2.13;;;15.30;99.90;;;;;;5142739;27;20468;-66
2022/08/15 13:41:39;;;;;;;2.43;2.20;;;15.30;99.90;;;;;;5133648;28;20960;-65
2022/08/15 13:44:19;;;;;;;2.63;1.97;;;15.30;99.90;;;;;;5107742;27;20479;-66
2022/08/15 13:47:01;;;;;;;4.20;2.60;;;15.40;99.90;;;;;;5127792;27;20513;-66
2022/08/15 13:49:39;;;;;;;2.60;2.37;;;15.40;99.90;;;;;;5135353;27;20446;-65
2022/08/15 13:52:10;;;;;;;3.00;2.00;;;15.50;99.90;;;;;;5131262;27;20459;-66
2022/08/15 13:55:05;;;;;;;2.90;2.37;;;15.50;99.90;;;;;;5146446;27;20462;-66
2022/08/15 13:57:45;;;;;;;2.67;2.47;;;15.60;99.90;;;;;;5130145;27;20450;-66
2022/08/15 14:00:37;;;;;;;3.13;2.20;;;15.60;99.90;;;;;;5138174;27;20473;-66
2022/08/15 14:03:28;;;;;;;3.50;2.47;;;15.60;99.90;;;;;;5126281;27;20498;-66
2022/08/15 14:06:03;;;;;;;3.00;2.23;;;15.70;99.90;;;;;;5138559;27;20645;-66
2022/08/15 14:08:34;;;;;;;3.70;2.80;;;15.70;99.90;;;;;;5137564;27;20438;-67
2022/08/15 14:11:27;;;;;;;4.83;2.70;;;15.70;99.90;;;;;;5140005;27;20956;-67
2022/08/15 14:14:01;;;;;;;2.57;2.23;;;15.80;99.90;;;;;;5127925;27;20427;-66
2022/08/15 14:16:54;;;;;;;3.20;2.33;;;15.80;99.90;;;;;;5125364;28;20442;-67
2022/08/15 14:19:30;;;;;;;4.20;2.33;;;15.80;99.90;;;;;;5128581;27;20464;-66